Raymond, New Hampshire
Current Conditions -  °F | °C
As of 8:53 PM on Monday 22 Dec 2014 (Local Time) from KMHT Reporting Station
Light Rain Light Rain  
Wind Chill: 29°   Ceiling: 2000
Heat Index: 35°   Visibility: 10mi
Dew Point: 33°   Wind: 8mph
Humidity: 92%   Direction: 50°NE
Pressure: 30.31"   Gusts: NA
Location:  43.04°N, 71.18°W
Report Text: KMHT 230153Z 05007KT 10SM -RA FEW009 BKN020 OVC035 02/01 A3031 RMK AO2 RAB0055E06B36 SLP282 P0000 T00170006
Loading
Personal Weather Stations






























Interactive Weather Map New forecast layout! Learn more

10-Day Weather Forecast

Advertisements
Track Severe Weather on mobile